Cachoeira do Sul, Brazil
Current Conditions -  °F | °C
As of 3:00 PM on Sunday 23 Nov 2014 (Local Time) from SBSM Reporting Station
Few Clouds Few Clouds  
Wind Chill: 79°   Ceiling: Unl
Heat Index: 79°   Visibility: 6mi
Dew Point: 54°   Wind: 5mph
Humidity: 42%   Direction: NA
Pressure: 29.91"   Gusts: NA
Location:  30.04°S, 52.89°W
Report Text: SBSM 231700Z VRB04KT 9999 FEW040 26/12 Q1013
Loading
Personal Weather Stations






























Interactive Weather Map New forecast layout! Learn more

10-Day Weather Forecast

Advertisements
Track Severe Weather on mobile